Inicio METAR Ruta Wind Satelite

Informe Meteorológico

Fecha: 2020/09/22 23:06:34 Local
2020.09.23 04:06 UTC


Estado: VENCIDO
Operación:VFR
Barrancabermeja / Yariguies, Colombia (SKEJ) 07-01N 073-48W 134M
2020.09.22 2000 UTC
Wind: Variable at 2 MPH (2 KT):0
Visibility: greater than 7 mile(s):0
Sky conditions: partly cloudy
Temperature: 93 F (34 C)
Heat index: 104.5 F (40.3 C):1
Dew Point: 75 F (24 C)
Relative Humidity: 56%
Pressure (altimeter): 29.71 in. Hg (1006 hPa)
ob: SKEJ 222000Z VRB02KT 9999 SCT015 34/24 A2971
cycle: 20

SKEJ 221900Z 21003KT 9999 SCT015 32/24 A2973
SKEJ 221800Z 21003KT 9999 SCT015 31/24 A2976
SKEJ 221700Z 25003KT 9999 SCT015 31/24 A2980
SKEJ 221600Z 24004KT 9999 SCT010 31/25 A2983
SKEJ 221500Z 25004KT 9999 SCT010 29/25 A2985